Niobrara, Nebraska
Current Conditions -  °F | °C
As of 8:55 PM on Monday 22 Dec 2014 (Local Time) from KYKN Reporting Station
Broken Clouds Broken Clouds  
Wind Chill: 29°   Ceiling: 1500
Heat Index: 36°   Visibility: 10mi
Dew Point: 32°   Wind: 9mph
Humidity: 87%   Direction: 310°NW
Pressure: 29.49"   Gusts: NA
Location:  42.75°N, 98.03°W
Report Text: KYKN 230255Z AUTO 31008KT 10SM FEW008 BKN015 BKN033 02/00 A2949 RMK AO1 60001 52007
Loading
Personal Weather Stations






























Interactive Weather Map New forecast layout! Learn more

10-Day Weather Forecast

Advertisements
Track Severe Weather on mobile